sensor_id;sensor_type;location;lat;lon;timestamp;P1;durP1;ratioP1;P2;durP2;ratioP2
37321;SDS011;23697;48.684;9.032;2022-10-18T00:01:10;4.72;;;1.30;;
37321;SDS011;23697;48.684;9.032;2022-10-18T00:03:38;1.85;;;1.33;;
37321;SDS011;23697;48.684;9.032;2022-10-18T00:06:05;1.05;;;0.95;;
37321;SDS011;23697;48.684;9.032;2022-10-18T00:08:33;2.45;;;1.42;;
37321;SDS011;23697;48.684;9.032;2022-10-18T00:11:00;4.35;;;1.27;;
37321;SDS011;23697;48.684;9.032;2022-10-18T00:13:29;2.22;;;1.45;;
37321;SDS011;23697;48.684;9.032;2022-10-18T00:15:56;1.73;;;1.20;;
37321;SDS011;23697;48.684;9.032;2022-10-18T00:18:25;1.35;;;1.25;;
37321;SDS011;23697;48.684;9.032;2022-10-18T00:20:56;1.40;;;1.10;;
37321;SDS011;23697;48.684;9.032;2022-10-18T00:23:24;1.70;;;1.42;;
37321;SDS011;23697;48.684;9.032;2022-10-18T00:25:57;1.20;;;1.10;;
37321;SDS011;23697;48.684;9.032;2022-10-18T00:28:30;2.53;;;1.50;;
37321;SDS011;23697;48.684;9.032;2022-10-18T00:31:07;1.38;;;1.10;;
37321;SDS011;23697;48.684;9.032;2022-10-18T00:33:36;1.70;;;1.17;;
37321;SDS011;23697;48.684;9.032;2022-10-18T00:36:02;1.90;;;1.38;;
37321;SDS011;23697;48.684;9.032;2022-10-18T00:38:29;1.25;;;1.10;;
37321;SDS011;23697;48.684;9.032;2022-10-18T00:40:56;2.05;;;1.25;;
37321;SDS011;23697;48.684;9.032;2022-10-18T00:43:23;3.45;;;1.40;;
37321;SDS011;23697;48.684;9.032;2022-10-18T00:45:51;1.13;;;1.02;;
37321;SDS011;23697;48.684;9.032;2022-10-18T00:48:18;1.70;;;1.13;;
37321;SDS011;23697;48.684;9.032;2022-10-18T00:50:46;2.80;;;1.60;;
37321;SDS011;23697;48.684;9.032;2022-10-18T00:53:15;1.58;;;1.20;;
37321;SDS011;23697;48.684;9.032;2022-10-18T00:55:44;1.40;;;1.27;;
37321;SDS011;23697;48.684;9.032;2022-10-18T00:58:11;2.03;;;1.60;;
37321;SDS011;23697;48.684;9.032;2022-10-18T01:00:40;2.17;;;1.42;;
37321;SDS011;23697;48.684;9.032;2022-10-18T01:03:09;2.83;;;1.50;;
37321;SDS011;23697;48.684;9.032;2022-10-18T01:05:36;2.90;;;1.50;;
37321;SDS011;23697;48.684;9.032;2022-10-18T01:08:10;1.13;;;1.00;;
37321;SDS011;23697;48.684;9.032;2022-10-18T01:10:46;2.85;;;1.95;;
37321;SDS011;23697;48.684;9.032;2022-10-18T01:13:23;3.85;;;1.70;;
37321;SDS011;23697;48.684;9.032;2022-10-18T01:15:57;2.10;;;1.33;;
37321;SDS011;23697;48.684;9.032;2022-10-18T01:18:29;1.42;;;1.33;;
37321;SDS011;23697;48.684;9.032;2022-10-18T01:21:17;8.13;;;1.20;;
37321;SDS011;23697;48.684;9.032;2022-10-18T01:23:58;1.65;;;1.27;;
37321;SDS011;23697;48.684;9.032;2022-10-18T01:29:43;1.98;;;1.40;;
37321;SDS011;23697;48.684;9.032;2022-10-18T01:32:21;3.08;;;1.15;;
37321;SDS011;23697;48.684;9.032;2022-10-18T01:34:53;1.85;;;1.30;;
37321;SDS011;23697;48.684;9.032;2022-10-18T01:39:51;1.30;;;1.10;;
37321;SDS011;23697;48.684;9.032;2022-10-18T01:42:20;2.13;;;1.45;;
37321;SDS011;23697;48.684;9.032;2022-10-18T01:44:48;1.25;;;1.15;;
37321;SDS011;23697;48.684;9.032;2022-10-18T01:47:17;1.23;;;1.13;;
37321;SDS011;23697;48.684;9.032;2022-10-18T01:49:46;2.10;;;1.33;;
37321;SDS011;23697;48.684;9.032;2022-10-18T01:52:13;1.40;;;1.05;;
37321;SDS011;23697;48.684;9.032;2022-10-18T01:54:42;1.83;;;1.35;;
37321;SDS011;23697;48.684;9.032;2022-10-18T01:57:14;2.15;;;1.48;;
37321;SDS011;23697;48.684;9.032;2022-10-18T01:59:49;4.10;;;1.30;;
37321;SDS011;23697;48.684;9.032;2022-10-18T02:02:27;1.60;;;1.20;;
37321;SDS011;23697;48.684;9.032;2022-10-18T02:05:08;2.10;;;1.10;;
37321;SDS011;23697;48.684;9.032;2022-10-18T02:07:43;1.30;;;1.20;;
37321;SDS011;23697;48.684;9.032;2022-10-18T02:10:16;1.60;;;1.05;;
37321;SDS011;23697;48.684;9.032;2022-10-18T02:12:48;3.22;;;1.00;;
37321;SDS011;23697;48.684;9.032;2022-10-18T02:15:18;1.80;;;1.20;;
37321;SDS011;23697;48.684;9.032;2022-10-18T02:17:47;1.60;;;1.30;;
37321;SDS011;23697;48.684;9.032;2022-10-18T02:20:17;2.50;;;1.40;;
37321;SDS011;23697;48.684;9.032;2022-10-18T02:22:45;1.98;;;1.35;;
37321;SDS011;23697;48.684;9.032;2022-10-18T02:25:16;4.97;;;1.20;;
37321;SDS011;23697;48.684;9.032;2022-10-18T02:27:45;1.93;;;1.13;;
37321;SDS011;23697;48.684;9.032;2022-10-18T02:30:12;1.98;;;1.20;;
37321;SDS011;23697;48.684;9.032;2022-10-18T02:32:40;4.95;;;1.48;;
37321;SDS011;23697;48.684;9.032;2022-10-18T02:35:15;2.58;;;1.50;;
37321;SDS011;23697;48.684;9.032;2022-10-18T02:37:47;1.65;;;1.30;;
37321;SDS011;23697;48.684;9.032;2022-10-18T02:40:15;2.58;;;1.30;;
37321;SDS011;23697;48.684;9.032;2022-10-18T02:42:43;1.23;;;1.08;;
37321;SDS011;23697;48.684;9.032;2022-10-18T02:45:12;1.08;;;1.02;;
37321;SDS011;23697;48.684;9.032;2022-10-18T02:47:40;1.30;;;1.20;;
37321;SDS011;23697;48.684;9.032;2022-10-18T02:50:07;1.98;;;1.27;;
37321;SDS011;23697;48.684;9.032;2022-10-18T02:52:36;1.77;;;1.15;;
37321;SDS011;23697;48.684;9.032;2022-10-18T02:55:03;2.67;;;1.40;;
37321;SDS011;23697;48.684;9.032;2022-10-18T02:57:31;3.97;;;1.35;;
37321;SDS011;23697;48.684;9.032;2022-10-18T02:59:58;1.60;;;1.10;;
37321;SDS011;23697;48.684;9.032;2022-10-18T03:02:24;1.58;;;1.40;;
37321;SDS011;23697;48.684;9.032;2022-10-18T03:04:52;1.98;;;1.00;;
37321;SDS011;23697;48.684;9.032;2022-10-18T03:07:19;1.00;;;0.93;;
37321;SDS011;23697;48.684;9.032;2022-10-18T03:09:47;1.70;;;1.23;;
37321;SDS011;23697;48.684;9.032;2022-10-18T03:12:15;1.35;;;1.00;;
37321;SDS011;23697;48.684;9.032;2022-10-18T03:14:42;1.73;;;1.17;;
37321;SDS011;23697;48.684;9.032;2022-10-18T03:17:08;2.38;;;1.02;;
37321;SDS011;23697;48.684;9.032;2022-10-18T03:19:35;1.75;;;1.30;;
37321;SDS011;23697;48.684;9.032;2022-10-18T03:22:03;1.95;;;1.48;;
37321;SDS011;23697;48.684;9.032;2022-10-18T03:24:30;2.70;;;1.40;;
37321;SDS011;23697;48.684;9.032;2022-10-18T03:26:58;2.20;;;1.40;;
37321;SDS011;23697;48.684;9.032;2022-10-18T03:29:25;2.28;;;1.20;;
37321;SDS011;23697;48.684;9.032;2022-10-18T03:31:52;1.45;;;1.02;;
37321;SDS011;23697;48.684;9.032;2022-10-18T03:34:19;1.88;;;1.40;;
37321;SDS011;23697;48.684;9.032;2022-10-18T03:36:46;1.58;;;1.30;;
37321;SDS011;23697;48.684;9.032;2022-10-18T03:39:12;2.33;;;1.40;;
37321;SDS011;23697;48.684;9.032;2022-10-18T03:41:39;1.15;;;1.05;;
37321;SDS011;23697;48.684;9.032;2022-10-18T03:44:07;1.42;;;1.15;;
37321;SDS011;23697;48.684;9.032;2022-10-18T03:46:34;1.83;;;1.20;;
37321;SDS011;23697;48.684;9.032;2022-10-18T03:49:01;1.85;;;1.50;;
37321;SDS011;23697;48.684;9.032;2022-10-18T03:51:28;1.60;;;1.30;;
37321;SDS011;23697;48.684;9.032;2022-10-18T03:53:55;1.38;;;1.23;;
37321;SDS011;23697;48.684;9.032;2022-10-18T03:56:22;2.05;;;1.52;;
37321;SDS011;23697;48.684;9.032;2022-10-18T03:58:49;2.72;;;1.80;;
37321;SDS011;23697;48.684;9.032;2022-10-18T04:01:17;2.70;;;1.40;;
37321;SDS011;23697;48.684;9.032;2022-10-18T04:03:44;0.85;;;0.85;;
37321;SDS011;23697;48.684;9.032;2022-10-18T04:06:10;1.90;;;1.27;;
37321;SDS011;23697;48.684;9.032;2022-10-18T04:08:37;1.83;;;1.25;;
37321;SDS011;23697;48.684;9.032;2022-10-18T04:11:05;2.33;;;0.90;;
37321;SDS011;23697;48.684;9.032;2022-10-18T04:13:33;1.88;;;1.15;;
37321;SDS011;23697;48.684;9.032;2022-10-18T04:16:00;1.42;;;1.17;;
37321;SDS011;23697;48.684;9.032;2022-10-18T04:18:29;1.38;;;1.02;;
37321;SDS011;23697;48.684;9.032;2022-10-18T04:20:55;2.35;;;1.05;;
37321;SDS011;23697;48.684;9.032;2022-10-18T04:23:22;2.88;;;1.50;;
37321;SDS011;23697;48.684;9.032;2022-10-18T04:25:49;1.45;;;1.20;;
37321;SDS011;23697;48.684;9.032;2022-10-18T04:28:16;1.98;;;1.45;;
37321;SDS011;23697;48.684;9.032;2022-10-18T04:30:47;1.45;;;1.08;;
37321;SDS011;23697;48.684;9.032;2022-10-18T04:33:15;3.13;;;1.02;;
37321;SDS011;23697;48.684;9.032;2022-10-18T04:35:44;2.47;;;1.20;;
37321;SDS011;23697;48.684;9.032;2022-10-18T04:38:11;2.42;;;1.20;;
37321;SDS011;23697;48.684;9.032;2022-10-18T04:40:39;1.58;;;1.08;;
37321;SDS011;23697;48.684;9.032;2022-10-18T04:43:11;1.52;;;1.30;;
37321;SDS011;23697;48.684;9.032;2022-10-18T04:45:55;1.25;;;1.05;;
37321;SDS011;23697;48.684;9.032;2022-10-18T04:48:29;5.43;;;1.23;;
37321;SDS011;23697;48.684;9.032;2022-10-18T04:50:57;1.75;;;1.30;;
37321;SDS011;23697;48.684;9.032;2022-10-18T04:53:24;3.53;;;1.40;;
37321;SDS011;23697;48.684;9.032;2022-10-18T04:55:51;1.45;;;1.10;;
37321;SDS011;23697;48.684;9.032;2022-10-18T04:58:17;1.63;;;1.20;;
37321;SDS011;23697;48.684;9.032;2022-10-18T05:00:45;1.30;;;1.13;;
37321;SDS011;23697;48.684;9.032;2022-10-18T05:03:13;2.17;;;1.30;;
37321;SDS011;23697;48.684;9.032;2022-10-18T05:05:40;2.28;;;1.38;;
37321;SDS011;23697;48.684;9.032;2022-10-18T05:08:11;3.35;;;1.50;;
37321;SDS011;23697;48.684;9.032;2022-10-18T05:10:38;1.40;;;1.10;;
37321;SDS011;23697;48.684;9.032;2022-10-18T05:13:05;2.47;;;1.38;;
37321;SDS011;23697;48.684;9.032;2022-10-18T05:15:31;1.92;;;1.17;;
37321;SDS011;23697;48.684;9.032;2022-10-18T05:17:58;2.65;;;1.30;;
37321;SDS011;23697;48.684;9.032;2022-10-18T05:20:25;1.83;;;1.25;;
37321;SDS011;23697;48.684;9.032;2022-10-18T05:22:52;1.25;;;1.10;;
37321;SDS011;23697;48.684;9.032;2022-10-18T05:25:20;1.52;;;1.10;;
37321;SDS011;23697;48.684;9.032;2022-10-18T05:27:47;1.35;;;1.17;;
37321;SDS011;23697;48.684;9.032;2022-10-18T05:30:14;2.88;;;1.60;;
37321;SDS011;23697;48.684;9.032;2022-10-18T05:32:41;1.85;;;1.30;;
37321;SDS011;23697;48.684;9.032;2022-10-18T05:35:08;2.20;;;1.58;;
37321;SDS011;23697;48.684;9.032;2022-10-18T05:37:35;5.43;;;1.27;;
37321;SDS011;23697;48.684;9.032;2022-10-18T05:40:02;2.10;;;1.13;;
37321;SDS011;23697;48.684;9.032;2022-10-18T05:42:30;2.28;;;1.50;;
37321;SDS011;23697;48.684;9.032;2022-10-18T05:44:57;4.63;;;1.45;;
37321;SDS011;23697;48.684;9.032;2022-10-18T05:47:24;1.90;;;1.30;;
37321;SDS011;23697;48.684;9.032;2022-10-18T05:49:51;6.82;;;1.40;;
37321;SDS011;23697;48.684;9.032;2022-10-18T05:52:18;2.85;;;1.40;;
37321;SDS011;23697;48.684;9.032;2022-10-18T05:54:44;2.13;;;1.50;;
37321;SDS011;23697;48.684;9.032;2022-10-18T05:57:11;1.52;;;1.10;;
37321;SDS011;23697;48.684;9.032;2022-10-18T05:59:39;1.98;;;1.10;;
37321;SDS011;23697;48.684;9.032;2022-10-18T06:02:07;1.95;;;1.33;;
37321;SDS011;23697;48.684;9.032;2022-10-18T06:04:34;2.45;;;1.20;;
37321;SDS011;23697;48.684;9.032;2022-10-18T06:07:01;1.98;;;1.23;;
37321;SDS011;23697;48.684;9.032;2022-10-18T06:09:28;1.30;;;1.08;;
37321;SDS011;23697;48.684;9.032;2022-10-18T06:11:55;3.55;;;2.15;;
37321;SDS011;23697;48.684;9.032;2022-10-18T06:14:22;4.50;;;1.40;;
37321;SDS011;23697;48.684;9.032;2022-10-18T06:16:50;2.15;;;1.38;;
37321;SDS011;23697;48.684;9.032;2022-10-18T06:19:17;4.28;;;1.60;;
37321;SDS011;23697;48.684;9.032;2022-10-18T06:21:44;1.75;;;1.10;;
37321;SDS011;23697;48.684;9.032;2022-10-18T06:24:11;1.58;;;1.23;;
37321;SDS011;23697;48.684;9.032;2022-10-18T06:26:38;2.88;;;1.50;;
37321;SDS011;23697;48.684;9.032;2022-10-18T06:29:05;1.63;;;1.33;;
37321;SDS011;23697;48.684;9.032;2022-10-18T06:31:32;2.28;;;1.40;;
37321;SDS011;23697;48.684;9.032;2022-10-18T06:34:00;2.60;;;1.67;;
37321;SDS011;23697;48.684;9.032;2022-10-18T06:36:28;3.17;;;1.17;;
37321;SDS011;23697;48.684;9.032;2022-10-18T06:38:55;1.95;;;1.40;;
37321;SDS011;23697;48.684;9.032;2022-10-18T06:41:24;2.55;;;1.40;;
37321;SDS011;23697;48.684;9.032;2022-10-18T06:43:51;4.15;;;1.45;;
37321;SDS011;23697;48.684;9.032;2022-10-18T06:46:21;3.03;;;1.70;;
37321;SDS011;23697;48.684;9.032;2022-10-18T06:48:49;1.42;;;1.33;;
37321;SDS011;23697;48.684;9.032;2022-10-18T06:51:17;2.17;;;1.50;;
37321;SDS011;23697;48.684;9.032;2022-10-18T06:53:44;1.20;;;1.10;;
37321;SDS011;23697;48.684;9.032;2022-10-18T06:56:11;1.80;;;1.40;;
37321;SDS011;23697;48.684;9.032;2022-10-18T06:58:38;3.22;;;1.50;;
37321;SDS011;23697;48.684;9.032;2022-10-18T07:01:05;1.58;;;1.35;;
37321;SDS011;23697;48.684;9.032;2022-10-18T07:03:33;1.52;;;1.38;;
37321;SDS011;23697;48.684;9.032;2022-10-18T07:06:00;2.13;;;1.67;;
37321;SDS011;23697;48.684;9.032;2022-10-18T07:08:28;3.95;;;1.42;;
37321;SDS011;23697;48.684;9.032;2022-10-18T07:10:55;1.85;;;1.50;;
37321;SDS011;23697;48.684;9.032;2022-10-18T07:13:22;1.67;;;1.45;;
37321;SDS011;23697;48.684;9.032;2022-10-18T07:15:58;1.70;;;1.40;;
37321;SDS011;23697;48.684;9.032;2022-10-18T07:18:26;1.40;;;1.25;;
37321;SDS011;23697;48.684;9.032;2022-10-18T07:20:53;1.70;;;1.42;;
37321;SDS011;23697;48.684;9.032;2022-10-18T07:23:19;2.10;;;1.60;;
37321;SDS011;23697;48.684;9.032;2022-10-18T07:25:49;1.55;;;1.17;;
37321;SDS011;23697;48.684;9.032;2022-10-18T07:28:16;3.22;;;1.48;;
37321;SDS011;23697;48.684;9.032;2022-10-18T07:30:43;2.22;;;1.35;;
37321;SDS011;23697;48.684;9.032;2022-10-18T07:33:09;1.33;;;1.23;;
37321;SDS011;23697;48.684;9.032;2022-10-18T07:35:36;2.22;;;1.25;;
37321;SDS011;23697;48.684;9.032;2022-10-18T07:38:03;1.42;;;1.17;;
37321;SDS011;23697;48.684;9.032;2022-10-18T07:40:30;1.70;;;1.33;;
37321;SDS011;23697;48.684;9.032;2022-10-18T07:42:58;1.13;;;1.00;;
37321;SDS011;23697;48.684;9.032;2022-10-18T07:45:25;2.15;;;1.30;;
37321;SDS011;23697;48.684;9.032;2022-10-18T07:47:53;2.00;;;1.40;;
37321;SDS011;23697;48.684;9.032;2022-10-18T07:50:20;2.05;;;1.25;;
37321;SDS011;23697;48.684;9.032;2022-10-18T07:52:47;1.30;;;1.10;;
37321;SDS011;23697;48.684;9.032;2022-10-18T07:55:14;1.80;;;1.30;;
37321;SDS011;23697;48.684;9.032;2022-10-18T07:57:40;1.55;;;1.35;;
37321;SDS011;23697;48.684;9.032;2022-10-18T08:00:09;1.15;;;1.05;;
37321;SDS011;23697;48.684;9.032;2022-10-18T08:02:37;1.85;;;1.40;;
37321;SDS011;23697;48.684;9.032;2022-10-18T08:05:04;1.20;;;1.10;;
37321;SDS011;23697;48.684;9.032;2022-10-18T08:07:31;1.63;;;1.25;;
37321;SDS011;23697;48.684;9.032;2022-10-18T08:09:58;3.72;;;1.35;;
37321;SDS011;23697;48.684;9.032;2022-10-18T08:12:24;1.50;;;1.40;;
37321;SDS011;23697;48.684;9.032;2022-10-18T08:14:51;2.45;;;1.40;;
37321;SDS011;23697;48.684;9.032;2022-10-18T08:17:19;1.65;;;1.40;;
37321;SDS011;23697;48.684;9.032;2022-10-18T08:19:46;3.45;;;1.08;;
37321;SDS011;23697;48.684;9.032;2022-10-18T08:22:13;1.48;;;1.25;;
37321;SDS011;23697;48.684;9.032;2022-10-18T08:24:40;2.55;;;1.50;;
37321;SDS011;23697;48.684;9.032;2022-10-18T08:27:06;1.55;;;1.45;;
37321;SDS011;23697;48.684;9.032;2022-10-18T08:29:33;1.40;;;1.20;;
37321;SDS011;23697;48.684;9.032;2022-10-18T08:32:00;4.38;;;1.30;;
37321;SDS011;23697;48.684;9.032;2022-10-18T08:34:28;2.95;;;1.95;;
37321;SDS011;23697;48.684;9.032;2022-10-18T08:36:55;1.35;;;1.25;;
37321;SDS011;23697;48.684;9.032;2022-10-18T08:39:22;1.98;;;1.33;;
37321;SDS011;23697;48.684;9.032;2022-10-18T08:41:52;2.10;;;1.48;;
37321;SDS011;23697;48.684;9.032;2022-10-18T08:44:41;2.10;;;1.40;;
37321;SDS011;23697;48.684;9.032;2022-10-18T08:47:11;1.83;;;1.30;;
37321;SDS011;23697;48.684;9.032;2022-10-18T08:49:42;2.13;;;1.38;;
37321;SDS011;23697;48.684;9.032;2022-10-18T08:54:42;1.63;;;1.33;;
37321;SDS011;23697;48.684;9.032;2022-10-18T08:57:19;3.88;;;1.30;;
37321;SDS011;23697;48.684;9.032;2022-10-18T08:59:46;1.65;;;1.30;;
37321;SDS011;23697;48.684;9.032;2022-10-18T09:02:19;1.77;;;1.30;;
37321;SDS011;23697;48.684;9.032;2022-10-18T09:05:00;4.85;;;1.15;;
37321;SDS011;23697;48.684;9.032;2022-10-18T09:07:37;1.52;;;1.13;;
37321;SDS011;23697;48.684;9.032;2022-10-18T09:10:25;1.95;;;1.30;;
37321;SDS011;23697;48.684;9.032;2022-10-18T09:13:07;1.10;;;1.00;;
37321;SDS011;23697;48.684;9.032;2022-10-18T09:15:50;1.00;;;1.00;;
37321;SDS011;23697;48.684;9.032;2022-10-18T09:18:26;1.85;;;0.90;;
37321;SDS011;23697;48.684;9.032;2022-10-18T09:21:06;1.45;;;1.13;;
37321;SDS011;23697;48.684;9.032;2022-10-18T09:23:43;2.85;;;1.13;;
37321;SDS011;23697;48.684;9.032;2022-10-18T09:28:43;2.28;;;1.10;;
37321;SDS011;23697;48.684;9.032;2022-10-18T09:31:29;1.00;;;0.90;;
37321;SDS011;23697;48.684;9.032;2022-10-18T09:34:07;0.90;;;0.90;;
37321;SDS011;23697;48.684;9.032;2022-10-18T09:36:38;2.10;;;1.00;;
37321;SDS011;23697;48.684;9.032;2022-10-18T09:39:08;1.10;;;1.00;;
37321;SDS011;23697;48.684;9.032;2022-10-18T09:41:38;1.13;;;1.02;;
37321;SDS011;23697;48.684;9.032;2022-10-18T09:44:11;2.83;;;1.20;;
37321;SDS011;23697;48.684;9.032;2022-10-18T09:46:44;0.77;;;0.77;;
37321;SDS011;23697;48.684;9.032;2022-10-18T09:49:15;1.17;;;1.08;;
37321;SDS011;23697;48.684;9.032;2022-10-18T09:51:47;1.10;;;1.00;;
37321;SDS011;23697;48.684;9.032;2022-10-18T09:54:19;1.98;;;1.27;;
37321;SDS011;23697;48.684;9.032;2022-10-18T09:56:54;1.90;;;1.40;;
37321;SDS011;23697;48.684;9.032;2022-10-18T09:59:36;1.38;;;1.08;;
37321;SDS011;23697;48.684;9.032;2022-10-18T10:07:13;1.27;;;1.17;;
37321;SDS011;23697;48.684;9.032;2022-10-18T10:09:44;2.17;;;0.98;;
37321;SDS011;23697;48.684;9.032;2022-10-18T10:12:24;1.98;;;0.98;;
37321;SDS011;23697;48.684;9.032;2022-10-18T10:14:52;1.48;;;1.10;;
37321;SDS011;23697;48.684;9.032;2022-10-18T10:17:20;2.85;;;1.20;;
37321;SDS011;23697;48.684;9.032;2022-10-18T10:19:54;1.40;;;1.15;;
37321;SDS011;23697;48.684;9.032;2022-10-18T10:22:26;2.65;;;1.25;;
37321;SDS011;23697;48.684;9.032;2022-10-18T10:24:59;1.67;;;1.02;;
37321;SDS011;23697;48.684;9.032;2022-10-18T10:27:27;1.10;;;1.00;;
37321;SDS011;23697;48.684;9.032;2022-10-18T10:29:56;1.40;;;1.27;;
37321;SDS011;23697;48.684;9.032;2022-10-18T10:32:26;1.30;;;1.20;;
37321;SDS011;23697;48.684;9.032;2022-10-18T10:34:54;1.02;;;0.95;;
37321;SDS011;23697;48.684;9.032;2022-10-18T10:37:33;1.23;;;1.13;;
37321;SDS011;23697;48.684;9.032;2022-10-18T10:40:11;1.25;;;1.10;;
37321;SDS011;23697;48.684;9.032;2022-10-18T10:45:18;1.35;;;1.10;;
37321;SDS011;23697;48.684;9.032;2022-10-18T10:47:45;1.10;;;1.00;;
37321;SDS011;23697;48.684;9.032;2022-10-18T10:50:20;1.00;;;0.93;;
37321;SDS011;23697;48.684;9.032;2022-10-18T10:52:51;2.78;;;1.02;;
37321;SDS011;23697;48.684;9.032;2022-10-18T10:55:20;1.10;;;1.00;;
37321;SDS011;23697;48.684;9.032;2022-10-18T10:57:51;1.38;;;0.98;;
37321;SDS011;23697;48.684;9.032;2022-10-18T11:00:36;2.08;;;1.05;;
37321;SDS011;23697;48.684;9.032;2022-10-18T11:03:06;3.90;;;1.15;;
37321;SDS011;23697;48.684;9.032;2022-10-18T11:05:41;1.00;;;0.88;;
37321;SDS011;23697;48.684;9.032;2022-10-18T11:08:12;3.75;;;1.00;;
37321;SDS011;23697;48.684;9.032;2022-10-18T11:10:46;1.20;;;1.10;;
37321;SDS011;23697;48.684;9.032;2022-10-18T11:13:21;1.35;;;1.10;;
37321;SDS011;23697;48.684;9.032;2022-10-18T11:15:55;1.10;;;0.98;;
37321;SDS011;23697;48.684;9.032;2022-10-18T11:18:26;2.38;;;1.23;;
37321;SDS011;23697;48.684;9.032;2022-10-18T11:20:59;1.50;;;1.17;;
37321;SDS011;23697;48.684;9.032;2022-10-18T11:23:33;2.50;;;1.30;;
37321;SDS011;23697;48.684;9.032;2022-10-18T11:26:06;1.83;;;1.02;;
37321;SDS011;23697;48.684;9.032;2022-10-18T11:28:57;1.10;;;1.00;;
37321;SDS011;23697;48.684;9.032;2022-10-18T11:31:49;1.13;;;0.93;;
37321;SDS011;23697;48.684;9.032;2022-10-18T11:34:34;1.23;;;1.00;;
37321;SDS011;23697;48.684;9.032;2022-10-18T11:37:12;1.65;;;0.82;;
37321;SDS011;23697;48.684;9.032;2022-10-18T11:39:55;0.90;;;0.85;;
37321;SDS011;23697;48.684;9.032;2022-10-18T11:42:31;0.80;;;0.80;;
37321;SDS011;23697;48.684;9.032;2022-10-18T11:45:06;1.63;;;0.85;;
37321;SDS011;23697;48.684;9.032;2022-10-18T11:47:46;0.70;;;0.70;;
37321;SDS011;23697;48.684;9.032;2022-10-18T11:50:21;1.45;;;0.82;;
37321;SDS011;23697;48.684;9.032;2022-10-18T11:53:05;0.90;;;0.90;;
37321;SDS011;23697;48.684;9.032;2022-10-18T11:55:43;1.08;;;0.63;;
37321;SDS011;23697;48.684;9.032;2022-10-18T11:58:25;0.82;;;0.80;;
37321;SDS011;23697;48.684;9.032;2022-10-18T12:01:02;0.95;;;0.85;;
37321;SDS011;23697;48.684;9.032;2022-10-18T12:03:38;0.60;;;0.60;;
37321;SDS011;23697;48.684;9.032;2022-10-18T12:06:16;0.60;;;0.60;;
37321;SDS011;23697;48.684;9.032;2022-10-18T12:08:46;1.05;;;0.90;;
37321;SDS011;23697;48.684;9.032;2022-10-18T12:11:18;2.03;;;0.70;;
37321;SDS011;23697;48.684;9.032;2022-10-18T12:13:49;0.70;;;0.70;;
37321;SDS011;23697;48.684;9.032;2022-10-18T12:16:19;1.08;;;0.70;;
37321;SDS011;23697;48.684;9.032;2022-10-18T12:18:52;0.65;;;0.55;;
37321;SDS011;23697;48.684;9.032;2022-10-18T12:21:31;0.90;;;0.90;;
37321;SDS011;23697;48.684;9.032;2022-10-18T12:24:01;0.45;;;0.45;;
37321;SDS011;23697;48.684;9.032;2022-10-18T12:26:32;0.60;;;0.60;;
37321;SDS011;23697;48.684;9.032;2022-10-18T12:29:03;0.60;;;0.60;;
37321;SDS011;23697;48.684;9.032;2022-10-18T12:31:39;0.65;;;0.65;;
37321;SDS011;23697;48.684;9.032;2022-10-18T12:34:17;0.88;;;0.40;;
37321;SDS011;23697;48.684;9.032;2022-10-18T12:36:54;0.70;;;0.63;;
37321;SDS011;23697;48.684;9.032;2022-10-18T12:39:35;0.60;;;0.50;;
37321;SDS011;23697;48.684;9.032;2022-10-18T12:42:13;0.60;;;0.60;;
37321;SDS011;23697;48.684;9.032;2022-10-18T12:44:44;0.65;;;0.60;;
37321;SDS011;23697;48.684;9.032;2022-10-18T12:47:19;0.60;;;0.60;;
37321;SDS011;23697;48.684;9.032;2022-10-18T12:49:54;1.17;;;0.45;;
37321;SDS011;23697;48.684;9.032;2022-10-18T12:52:23;0.82;;;0.50;;
37321;SDS011;23697;48.684;9.032;2022-10-18T12:55:06;0.73;;;0.55;;
37321;SDS011;23697;48.684;9.032;2022-10-18T12:58:19;0.63;;;0.60;;
37321;SDS011;23697;48.684;9.032;2022-10-18T13:07:10;1.98;;;0.55;;
37321;SDS011;23697;48.684;9.032;2022-10-18T13:09:38;0.98;;;0.65;;
37321;SDS011;23697;48.684;9.032;2022-10-18T13:15:34;1.60;;;1.00;;
37321;SDS011;23697;48.684;9.032;2022-10-18T13:18:08;1.63;;;1.20;;
37321;SDS011;23697;48.684;9.032;2022-10-18T13:20:46;2.80;;;1.48;;
37321;SDS011;23697;48.684;9.032;2022-10-18T13:23:37;5.50;;;2.28;;
37321;SDS011;23697;48.684;9.032;2022-10-18T13:26:15;5.00;;;1.42;;
37321;SDS011;23697;48.684;9.032;2022-10-18T13:28:49;1.33;;;0.90;;
37321;SDS011;23697;48.684;9.032;2022-10-18T13:31:24;0.68;;;0.68;;
37321;SDS011;23697;48.684;9.032;2022-10-18T13:33:56;0.98;;;0.80;;
37321;SDS011;23697;48.684;9.032;2022-10-18T13:36:42;1.30;;;0.57;;
37321;SDS011;23697;48.684;9.032;2022-10-18T13:39:17;1.27;;;0.82;;
37321;SDS011;23697;48.684;9.032;2022-10-18T13:44:45;2.63;;;0.80;;
37321;SDS011;23697;48.684;9.032;2022-10-18T13:47:13;1.88;;;0.90;;
37321;SDS011;23697;48.684;9.032;2022-10-18T13:49:47;1.05;;;0.75;;
37321;SDS011;23697;48.684;9.032;2022-10-18T13:52:32;0.95;;;0.82;;
37321;SDS011;23697;48.684;9.032;2022-10-18T13:55:34;2.15;;;0.90;;
37321;SDS011;23697;48.684;9.032;2022-10-18T13:58:12;1.17;;;0.90;;
37321;SDS011;23697;48.684;9.032;2022-10-18T14:00:48;1.70;;;0.80;;
37321;SDS011;23697;48.684;9.032;2022-10-18T14:03:27;0.70;;;0.70;;
37321;SDS011;23697;48.684;9.032;2022-10-18T14:06:03;1.00;;;0.68;;
37321;SDS011;23697;48.684;9.032;2022-10-18T14:08:34;1.30;;;1.15;;
37321;SDS011;23697;48.684;9.032;2022-10-18T14:11:06;1.05;;;0.73;;
37321;SDS011;23697;48.684;9.032;2022-10-18T14:13:44;1.02;;;0.80;;
37321;SDS011;23697;48.684;9.032;2022-10-18T14:16:18;1.13;;;1.00;;
37321;SDS011;23697;48.684;9.032;2022-10-18T14:19:00;2.00;;;0.80;;
37321;SDS011;23697;48.684;9.032;2022-10-18T14:21:36;0.77;;;0.77;;
37321;SDS011;23697;48.684;9.032;2022-10-18T14:24:08;0.60;;;0.60;;
37321;SDS011;23697;48.684;9.032;2022-10-18T14:26:42;0.82;;;0.80;;
37321;SDS011;23697;48.684;9.032;2022-10-18T14:29:15;0.70;;;0.70;;
37321;SDS011;23697;48.684;9.032;2022-10-18T14:31:48;0.60;;;0.60;;
37321;SDS011;23697;48.684;9.032;2022-10-18T14:34:18;0.70;;;0.70;;
37321;SDS011;23697;48.684;9.032;2022-10-18T14:36:46;0.52;;;0.52;;
37321;SDS011;23697;48.684;9.032;2022-10-18T14:39:16;0.40;;;0.40;;
37321;SDS011;23697;48.684;9.032;2022-10-18T14:41:51;0.95;;;0.90;;
37321;SDS011;23697;48.684;9.032;2022-10-18T14:44:20;1.75;;;0.90;;
37321;SDS011;23697;48.684;9.032;2022-10-18T14:46:51;0.52;;;0.52;;
37321;SDS011;23697;48.684;9.032;2022-10-18T14:49:24;0.68;;;0.60;;
37321;SDS011;23697;48.684;9.032;2022-10-18T14:51:51;0.75;;;0.75;;
37321;SDS011;23697;48.684;9.032;2022-10-18T14:54:21;1.00;;;0.77;;
37321;SDS011;23697;48.684;9.032;2022-10-18T14:56:51;0.80;;;0.80;;
37321;SDS011;23697;48.684;9.032;2022-10-18T14:59:19;1.38;;;0.55;;
37321;SDS011;23697;48.684;9.032;2022-10-18T15:01:50;1.08;;;0.80;;
37321;SDS011;23697;48.684;9.032;2022-10-18T15:04:19;2.45;;;1.10;;
37321;SDS011;23697;48.684;9.032;2022-10-18T15:06:47;0.70;;;0.70;;
37321;SDS011;23697;48.684;9.032;2022-10-18T15:09:14;0.75;;;0.70;;
37321;SDS011;23697;48.684;9.032;2022-10-18T15:11:46;0.88;;;0.70;;
37321;SDS011;23697;48.684;9.032;2022-10-18T15:14:15;1.05;;;0.77;;
37321;SDS011;23697;48.684;9.032;2022-10-18T15:16:46;0.70;;;0.70;;
37321;SDS011;23697;48.684;9.032;2022-10-18T15:22:07;1.90;;;1.05;;
37321;SDS011;23697;48.684;9.032;2022-10-18T15:24:35;0.75;;;0.75;;
37321;SDS011;23697;48.684;9.032;2022-10-18T15:27:11;1.50;;;0.60;;
37321;SDS011;23697;48.684;9.032;2022-10-18T15:29:40;2.28;;;1.00;;
37321;SDS011;23697;48.684;9.032;2022-10-18T15:32:14;1.02;;;0.82;;
37321;SDS011;23697;48.684;9.032;2022-10-18T15:34:44;0.63;;;0.63;;
37321;SDS011;23697;48.684;9.032;2022-10-18T15:37:15;0.80;;;0.80;;
37321;SDS011;23697;48.684;9.032;2022-10-18T15:39:44;0.90;;;0.80;;
37321;SDS011;23697;48.684;9.032;2022-10-18T15:47:57;0.68;;;0.68;;
37321;SDS011;23697;48.684;9.032;2022-10-18T15:50:37;0.70;;;0.70;;